Time;durP1;ratioP1;P1;durP2;ratioP2;P2;SDS_P1;SDS_P2;PMS_P1;PMS_P2;Temp;Humidity;BMP_temperature;BMP_pressure;BME280_temperature;BME280_humidity;BME280_pressure;Samples;Min_cycle;Max_cycle;Signal;HPM_P1;HPM_P2
2023/02/18 00:04:50;;;;;;;10.23;2.10;;;;;;;7.12;100.00;99979.72;5011029;57;1136701;-75
2023/02/18 00:09:56;;;;;;;11.27;1.57;;;;;;;7.09;100.00;99981.25;5030313;57;1136713;-68
2023/02/18 00:15:01;;;;;;;7.60;1.93;;;;;;;7.09;100.00;99998.81;5011164;57;1137170;-74
2023/02/18 00:20:08;;;;;;;8.63;2.00;;;;;;;7.06;100.00;99986.72;5010900;57;1134688;-71
2023/02/18 00:25:15;;;;;;;10.15;1.85;;;;;;;7.01;100.00;99985.76;5011596;57;1134659;-73
2023/02/18 00:30:21;;;;;;;14.53;2.03;;;;;;;6.93;100.00;99985.92;5031098;57;1137118;-74
2023/02/18 00:35:27;;;;;;;6.47;1.40;;;;;;;6.89;100.00;99991.86;5012111;57;1136761;-77
2023/02/18 00:40:32;;;;;;;20.40;1.90;;;;;;;6.90;100.00;99979.56;5016071;55;1134660;-72
2023/02/18 00:45:38;;;;;;;6.67;1.60;;;;;;;6.87;100.00;100000.36;5035623;56;1137167;-71
2023/02/18 00:50:45;;;;;;;10.05;1.65;;;;;;;6.84;100.00;99982.64;5013455;56;1136987;-69
2023/02/18 00:55:50;;;;;;;18.63;3.57;;;;;;;6.86;100.00;99995.20;5011357;56;1136825;-77
2023/02/18 01:00:56;;;;;;;14.63;2.47;;;;;;;6.86;100.00;100010.50;5031022;57;1136959;-73
2023/02/18 01:06:03;;;;;;;9.13;1.90;;;;;;;6.83;100.00;100019.91;5011182;57;1138834;-70
2023/02/18 01:11:13;;;;;;;13.07;2.63;;;;;;;6.81;100.00;100013.92;5011344;57;1136815;-73
2023/02/18 01:16:19;;;;;;;10.65;2.05;;;;;;;6.78;100.00;100010.66;5011086;57;1138872;-73
2023/02/18 01:21:26;;;;;;;12.93;2.17;;;;;;;6.74;100.00;100011.81;5030733;57;1139020;-72
2023/02/18 01:26:31;;;;;;;4.83;1.23;;;;;;;6.70;100.00;100004.17;5011464;57;1139005;-74
2023/02/18 01:31:37;;;;;;;12.37;2.23;;;;;;;6.66;100.00;100002.69;4994497;56;1136874;-73
2023/02/18 01:36:43;;;;;;;8.03;1.63;;;;;;;6.60;100.00;100014.09;4903443;56;1138934;-78
2023/02/18 01:41:49;;;;;;;13.97;2.13;;;;;;;6.58;100.00;100009.41;4884386;56;1136633;-70
2023/02/18 01:46:56;;;;;;;6.53;1.57;;;;;;;6.51;100.00;100015.58;4884270;56;1138781;-71
2023/02/18 01:52:06;;;;;;;11.80;1.97;;;;;;;6.45;100.00;100012.52;5010669;56;1136671;-72
2023/02/18 01:57:20;;;;;;;9.93;3.10;;;;;;;6.43;100.00;100015.25;5010860;57;1139018;-73
2023/02/18 02:02:29;;;;;;;13.73;1.80;;;;;;;6.40;100.00;100006.77;5011267;57;1137051;-73
2023/02/18 02:07:35;;;;;;;13.90;2.00;;;;;;;6.32;100.00;99998.91;5030738;57;1138834;-74
2023/02/18 02:13:09;;;;;;;11.28;2.52;;;;;;;6.31;100.00;100017.40;5011351;57;1136885;-76
2023/02/18 02:18:58;;;;;;;14.50;1.70;;;;;;;6.26;100.00;100019.52;4968355;57;1138828;-75
2023/02/18 02:24:38;;;;;;;12.00;1.57;;;;;;;6.24;100.00;100003.87;5010676;57;1138823;-72
2023/02/18 02:30:09;;;;;;;11.55;1.90;;;;;;;6.23;100.00;100035.00;4946778;57;1138862;-69
2023/02/18 02:35:23;;;;;;;11.68;1.72;;;;;;;6.22;100.00;100030.70;4884004;56;1139189;-74
2023/02/18 02:40:48;;;;;;;10.07;2.83;;;;;;;6.18;100.00;100028.38;4908501;56;1138984;-73
2023/02/18 02:46:06;;;;;;;18.07;3.20;;;;;;;6.17;100.00;100051.63;5020669;56;1139005;-71
2023/02/18 02:51:32;;;;;;;14.40;1.77;;;;;;;6.18;100.00;100038.40;5012144;56;1138981;-69
2023/02/18 02:56:38;;;;;;;5.47;1.73;;;;;;;6.14;100.00;100051.36;5011088;57;1141356;-72
2023/02/18 03:02:27;;;;;;;6.60;1.32;;;;;;;6.13;100.00;100039.17;5030922;57;1136855;-72
2023/02/18 03:08:08;;;;;;;8.57;2.27;;;;;;;6.09;100.00;100025.06;5011444;57;1137057;-75
2023/02/18 03:13:28;;;;;;;15.67;2.60;;;;;;;6.02;100.00;100050.86;5010986;57;1136742;-72
2023/02/18 03:18:57;;;;;;;9.67;2.00;;;;;;;5.91;100.00;100046.33;5011092;57;1138798;-73
2023/02/18 03:24:23;;;;;;;5.63;1.43;;;;;;;5.86;100.00;100056.25;5015047;57;1136933;-75
2023/02/18 03:29:29;;;;;;;9.63;2.17;;;;;;;5.80;100.00;100060.61;4883741;56;1136712;-74
2023/02/18 03:34:39;;;;;;;12.63;2.23;;;;;;;5.77;100.00;100046.37;4884366;56;1137048;-73
2023/02/18 03:39:50;;;;;;;13.50;2.20;;;;;;;5.73;100.00;100044.88;4902757;57;1138724;-71
2023/02/18 03:44:58;;;;;;;12.10;2.03;;;;;;;5.71;100.00;100055.94;4883992;56;1138911;-73
2023/02/18 03:50:04;;;;;;;10.43;2.35;;;;;;;5.66;100.00;100071.97;4940884;56;1138807;-73
2023/02/18 03:55:10;;;;;;;12.47;2.93;;;;;;;5.66;100.00;100080.30;5010743;57;1138959;-67
2023/02/18 04:00:17;;;;;;;9.50;1.83;;;;;;;5.65;100.00;100062.91;5030193;57;1139103;-73
2023/02/18 04:05:23;;;;;;;6.93;3.67;;;;;;;5.66;100.00;100075.06;5011375;57;1136982;-72
2023/02/18 04:10:29;;;;;;;12.00;1.97;;;;;;;5.63;100.00;100074.81;5013884;57;1136992;-73
2023/02/18 04:15:35;;;;;;;10.25;1.90;;;;;;;5.62;100.00;100105.92;5033282;57;1139009;-70
2023/02/18 04:20:41;;;;;;;9.25;2.27;;;;;;;5.62;100.00;100114.26;5014357;56;1138729;-74
2023/02/18 04:25:47;;;;;;;16.23;3.00;;;;;;;5.62;100.00;100111.63;5018498;55;1136704;-69
2023/02/18 04:30:53;;;;;;;7.80;1.47;;;;;;;5.60;100.00;100106.48;5037742;55;1138853;-72
2023/02/18 04:35:59;;;;;;;10.00;2.23;;;;;;;5.61;100.00;100112.10;5018014;55;1136975;-73
2023/02/18 04:41:05;;;;;;;18.47;2.50;;;;;;;5.62;100.00;100102.45;5017734;55;1138824;-72
2023/02/18 04:46:11;;;;;;;17.37;3.60;;;;;;;5.59;100.00;100115.29;5018184;55;1138900;-70
2023/02/18 04:51:17;;;;;;;15.77;2.30;;;;;;;5.59;100.00;100123.16;5034543;56;1139006;-75
2023/02/18 04:56:22;;;;;;;17.50;2.83;;;;;;;5.62;100.00;100143.11;5013311;57;1139068;-73
2023/02/18 05:01:28;;;;;;;11.03;2.47;;;;;;;5.60;100.00;100137.12;5013315;56;1138984;-75
2023/02/18 05:06:34;;;;;;;7.60;1.75;;;;;;;5.61;100.00;100132.25;5020885;57;1139105;-75
2023/02/18 05:11:40;;;;;;;14.00;1.45;;;;;;;5.62;100.00;100134.77;5011113;57;1136988;-75
2023/02/18 05:16:46;;;;;;;9.07;2.10;;;;;;;5.62;100.00;100123.44;5000885;57;1138842;-76
2023/02/18 05:21:52;;;;;;;20.08;2.92;;;;;;;5.61;100.00;100142.27;4956388;57;1136808;-70
2023/02/18 05:26:57;;;;;;;12.13;2.03;;;;;;;5.62;100.00;100153.61;4936322;57;1138867;-73
2023/02/18 05:32:03;;;;;;;11.73;3.03;;;;;;;5.60;100.00;100141.90;4936467;57;1138783;-70
2023/02/18 05:37:09;;;;;;;16.23;2.47;;;;;;;5.62;100.00;100141.33;4936410;57;1138971;-74
2023/02/18 05:42:15;;;;;;;12.70;2.43;;;;;;;5.58;100.00;100155.58;5013787;56;1138791;-74
2023/02/18 05:47:20;;;;;;;12.00;1.90;;;;;;;5.55;100.00;100165.41;5005396;55;1139034;-70
2023/02/18 05:52:26;;;;;;;14.93;2.93;;;;;;;5.54;100.00;100160.62;5006751;57;1138930;-68
2023/02/18 05:57:32;;;;;;;8.23;1.30;;;;;;;5.53;100.00;100169.91;5032877;56;1138720;-69
2023/02/18 06:02:38;;;;;;;7.80;1.80;;;;;;;5.52;100.00;100183.48;4987939;56;1136818;-69
2023/02/18 06:07:45;;;;;;;15.38;2.37;;;;;;;5.52;100.00;100174.77;5009504;55;1137003;-71
2023/02/18 06:12:51;;;;;;;10.65;2.40;;;;;;;5.49;100.00;100182.86;5023772;56;1138902;-70
2023/02/18 06:17:56;;;;;;;12.63;2.03;;;;;;;5.49;100.00;100197.28;5012531;56;1138864;-70
2023/02/18 06:23:02;;;;;;;18.67;2.80;;;;;;;5.48;100.00;100195.12;4990389;56;1138990;-69
2023/02/18 06:28:08;;;;;;;10.97;2.07;;;;;;;5.48;100.00;100203.47;4934287;57;1138849;-68
2023/02/18 06:33:14;;;;;;;13.87;2.60;;;;;;;5.48;100.00;100212.17;4985940;56;1138785;-67
2023/02/18 06:38:20;;;;;;;16.67;2.73;;;;;;;5.49;100.00;100239.25;4933530;57;1139066;-68
2023/02/18 06:43:26;;;;;;;13.07;2.33;;;;;;;5.46;100.00;100233.72;4934090;57;1138980;-71
2023/02/18 06:48:33;;;;;;;10.80;2.43;;;;;;;5.46;100.00;100227.63;5005356;56;1139057;-76
2023/02/18 06:53:39;;;;;;;13.13;2.07;;;;;;;5.46;100.00;100235.49;4998450;55;1145784;-68
2023/02/18 06:58:45;;;;;;;16.40;2.67;;;;;;;5.43;100.00;100233.90;4949652;56;1138978;-74
2023/02/18 07:03:50;;;;;;;9.53;2.03;;;;;;;5.48;100.00;100240.19;5032001;56;1138982;-71
2023/02/18 07:08:56;;;;;;;12.20;2.60;;;;;;;5.47;100.00;100244.59;4968749;55;1136923;-74
2023/02/18 07:14:02;;;;;;;7.37;2.63;;;;;;;5.51;100.00;100239.50;4999682;55;1138650;-74
2023/02/18 07:19:08;;;;;;;14.73;2.70;;;;;;;5.49;100.00;100251.05;5017772;55;1136961;-72
2023/02/18 07:24:14;;;;;;;16.37;2.70;;;;;;;5.50;100.00;100243.06;5037207;55;1138878;-78
2023/02/18 07:29:20;;;;;;;15.10;2.37;;;;;;;5.56;100.00;100251.03;5017688;55;1138950;-69
2023/02/18 07:34:26;;;;;;;12.33;2.57;;;;;;;5.54;100.00;100240.63;4973870;56;1139030;-76
2023/02/18 07:39:32;;;;;;;17.13;2.80;;;;;;;5.56;100.00;100232.67;4969843;57;1138804;-70
2023/02/18 07:44:39;;;;;;;13.00;3.70;;;;;;;5.56;100.00;100232.20;4933742;56;1138974;-68
2023/02/18 07:49:46;;;;;;;10.75;2.35;;;;;;;5.67;100.00;100232.84;5000437;55;1138791;-66
2023/02/18 07:54:51;;;;;;;11.73;2.30;;;;;;;5.75;100.00;100237.17;5032686;57;1139064;-66
2023/02/18 07:59:57;;;;;;;10.87;2.10;;;;;;;5.90;100.00;100223.59;4993012;56;1138988;-69
2023/02/18 08:05:03;;;;;;;19.23;4.20;;;;;;;5.93;100.00;100246.55;4973189;56;1139022;-67
2023/02/18 08:10:09;;;;;;;13.10;3.37;;;;;;;5.90;100.00;100232.30;4979053;55;1138895;-67
2023/02/18 08:15:15;;;;;;;27.13;4.00;;;;;;;5.93;100.00;100237.84;5017868;55;1139343;-68
2023/02/18 08:20:21;;;;;;;23.90;3.10;;;;;;;5.90;100.00;100236.24;5014995;56;1138813;-70
2023/02/18 08:25:26;;;;;;;20.87;2.70;;;;;;;5.93;100.00;100236.53;4994993;55;1138988;-67
2023/02/18 08:30:32;;;;;;;14.93;2.83;;;;;;;6.00;100.00;100242.59;5037995;55;1138823;-68
2023/02/18 08:35:39;;;;;;;12.75;2.47;;;;;;;6.10;100.00;100244.65;5015309;55;1138889;-67
2023/02/18 08:40:45;;;;;;;17.80;2.35;;;;;;;6.12;100.00;100251.47;5015085;55;1138838;-68
2023/02/18 08:45:51;;;;;;;15.15;2.35;;;;;;;6.11;100.00;100236.65;5030396;55;1138778;-70
2023/02/18 08:50:57;;;;;;;14.50;2.58;;;;;;;6.14;100.00;100246.96;5013096;55;1138895;-67
2023/02/18 08:56:07;;;;;;;13.80;2.50;;;;;;;6.21;100.00;100235.14;5006694;57;1138868;-67
2023/02/18 09:01:14;;;;;;;17.23;4.07;;;;;;;6.30;100.00;100240.26;4963687;56;1139127;-69
2023/02/18 09:06:20;;;;;;;22.60;2.70;;;;;;;6.33;100.00;100236.97;5033154;56;1138995;-67
2023/02/18 09:11:26;;;;;;;21.33;4.60;;;;;;;6.42;100.00;100239.94;5015444;55;1139007;-68
2023/02/18 09:16:32;;;;;;;8.47;2.07;;;;;;;6.47;100.00;100240.48;4989734;56;1138984;-69
2023/02/18 09:21:38;;;;;;;7.60;1.63;;;;;;;6.51;100.00;100236.72;5028780;56;1145427;-67
2023/02/18 09:26:44;;;;;;;20.87;3.13;;;;;;;6.55;100.00;100223.77;4934701;57;1136797;-70
2023/02/18 09:31:49;;;;;;;21.70;3.17;;;;;;;6.54;100.00;100234.75;4934290;57;1138835;-69
2023/02/18 09:36:55;;;;;;;13.18;2.33;;;;;;;6.64;100.00;100232.34;4963023;57;1138960;-70
2023/02/18 09:42:05;;;;;;;19.50;3.40;;;;;;;6.79;100.00;100219.50;5010904;57;1138976;-66
2023/02/18 09:47:30;;;;;;;10.70;3.00;;;;;;;6.90;100.00;100201.69;5010929;57;1139001;-70
2023/02/18 09:52:38;;;;;;;11.17;2.33;;;;;;;6.95;100.00;100210.96;4967051;56;1138872;-67
2023/02/18 09:57:57;;;;;;;15.35;3.02;;;;;;;7.02;100.00;100212.72;5034899;56;1138839;-74
2023/02/18 10:03:09;;;;;;;22.57;4.63;;;;;;;7.08;100.00;100210.97;5015635;55;1138904;-71
2023/02/18 10:08:31;;;;;;;30.37;4.20;;;;;;;7.18;100.00;100211.20;4998574;55;1138853;-69
2023/02/18 10:13:42;;;;;;;14.87;1.83;;;;;;;7.28;100.00;100212.24;5014463;55;1139184;-67
2023/02/18 10:18:48;;;;;;;15.63;2.37;;;;;;;7.33;100.00;100200.94;5015821;55;1138808;-68
2023/02/18 10:24:07;;;;;;;8.65;2.85;;;;;;;7.41;100.00;100188.08;4982561;56;1138947;-69
2023/02/18 10:29:20;;;;;;;9.97;1.43;;;;;;;7.49;100.00;100172.59;4960554;56;1136947;-69
2023/02/18 10:34:40;;;;;;;16.93;2.33;;;;;;;7.57;100.00;100157.59;4983613;55;1137059;-68
2023/02/18 10:40:16;;;;;;;14.07;2.25;;;;;;;7.62;100.00;100159.42;5023882;56;1138866;-69
2023/02/18 10:45:38;;;;;;;11.93;2.20;;;;;;;7.66;100.00;100149.02;5018511;55;1138870;-66
2023/02/18 10:50:46;;;;;;;15.37;2.77;;;;;;;7.72;100.00;100140.70;4987962;55;1139086;-66
2023/02/18 10:55:55;;;;;;;18.85;2.85;;;;;;;7.76;100.00;100123.74;5037070;55;1138910;-69
2023/02/18 11:01:04;;;;;;;11.37;2.40;;;;;;;7.78;100.00;100115.74;5017902;55;1139028;-67
2023/02/18 11:06:29;;;;;;;8.90;2.03;;;;;;;7.89;100.00;100118.42;4991038;56;1138912;-68
2023/02/18 11:11:39;;;;;;;9.13;2.03;;;;;;;8.06;100.00;100121.98;5002016;56;1136926;-66
2023/02/18 11:16:52;;;;;;;4.30;1.70;;;;;;;8.15;100.00;100109.45;5033024;57;1136789;-69
2023/02/18 11:38:38;;;;;;;;;;;;;;;8.16;100.00;100071.62;4971476;55;1130974;-70
2023/02/18 11:43:48;;;;;;;9.07;1.50;;;;;;;8.06;100.00;100050.41;4864306;58;974202;-66
2023/02/18 11:48:55;;;;;;;7.90;1.47;;;;;;;7.97;100.00;100026.05;4910036;58;1135084;-67
2023/02/18 11:54:17;;;;;;;11.13;2.10;;;;;;;8.09;100.00;100015.10;4954177;57;1136831;-67
2023/02/18 11:59:23;;;;;;;8.47;2.17;;;;;;;8.25;100.00;100003.73;4852130;57;1138872;-69
2023/02/18 12:04:52;;;;;;;9.37;1.10;;;;;;;8.44;99.14;100003.20;4956848;56;1136778;-67
2023/02/18 12:10:03;;;;;;;8.50;1.83;;;;;;;8.53;98.69;99983.23;4938606;57;1134592;-69
2023/02/18 12:15:15;;;;;;;3.87;1.00;;;;;;;8.76;99.91;99973.03;4898657;58;1132911;-69
2023/02/18 12:20:37;;;;;;;5.67;1.27;;;;;;;8.81;96.40;99985.37;4904056;58;1132554;-66
2023/02/18 12:26:26;;;;;;;2.40;0.93;;;;;;;8.56;94.87;99969.78;4934037;57;1132660;-68
2023/02/18 12:31:41;;;;;;;2.87;1.60;;;;;;;8.34;97.01;99974.58;4935280;58;1132645;-68
2023/02/18 12:37:24;;;;;;;6.00;1.20;;;;;;;8.24;100.00;99969.63;4934587;58;1133044;-66
2023/02/18 12:42:58;;;;;;;10.73;2.50;;;;;;;8.18;100.00;99973.56;4955178;57;1134923;-66
2023/02/18 12:48:23;;;;;;;3.90;1.50;;;;;;;8.06;100.00;99966.60;4928804;57;1137045;-68
2023/02/18 12:54:03;;;;;;;5.10;1.63;;;;;;;7.92;100.00;99954.96;4939766;57;1134642;-67
2023/02/18 12:59:31;;;;;;;2.70;0.97;;;;;;;7.65;100.00;99949.47;5091411;54;1134781;-67
2023/02/18 13:05:03;;;;;;;5.95;1.37;;;;;;;7.39;100.00;99935.62;5019020;55;1135015;-69
2023/02/18 13:10:51;;;;;;;6.70;1.52;;;;;;;7.20;100.00;99940.55;5032669;54;1134900;-69
2023/02/18 13:16:13;;;;;;;6.23;2.50;;;;;;;6.98;100.00;99950.48;5053098;55;1135281;-69
2023/02/18 13:21:18;;;;;;;7.17;3.10;;;;;;;6.79;100.00;99957.15;4950741;56;1134730;-68
2023/02/18 13:26:27;;;;;;;13.50;3.60;;;;;;;6.64;100.00;99953.81;4824382;57;1135229;-69
2023/02/18 13:32:01;;;;;;;16.97;4.20;;;;;;;6.54;100.00;99953.63;5015043;56;1136805;-69
2023/02/18 13:37:32;;;;;;;8.65;2.65;;;;;;;6.44;100.00;99954.36;5010366;56;1136767;-67
2023/02/18 13:42:38;;;;;;;8.25;2.62;;;;;;;6.41;100.00;99958.54;4931628;57;1252389;-65
2023/02/18 13:47:48;;;;;;;1.90;1.32;;;;;;;6.24;100.00;99950.03;4984116;56;1134880;-68
2023/02/18 13:53:11;;;;;;;5.27;1.27;;;;;;;6.05;100.00;99942.20;5067154;56;1137027;-67
2023/02/18 13:58:44;;;;;;;2.90;1.37;;;;;;;5.91;100.00;99934.80;5068016;56;1137013;-66
2023/02/18 14:03:56;;;;;;;3.95;1.27;;;;;;;5.80;100.00;99946.94;5226101;55;1136806;-67
2023/02/18 14:09:15;;;;;;;4.50;1.40;;;;;;;5.65;100.00;99943.55;5182846;55;1136912;-66
2023/02/18 14:14:31;;;;;;;5.30;1.53;;;;;;;5.53;100.00;99945.17;5166822;54;1136757;-69
2023/02/18 14:19:37;;;;;;;3.90;1.70;;;;;;;5.42;100.00;99945.05;4892012;56;1136836;-67
2023/02/18 14:24:53;;;;;;;2.77;1.30;;;;;;;5.33;100.00;99936.48;5144076;54;1136862;-66
2023/02/18 14:30:06;;;;;;;9.00;2.70;;;;;;;5.26;100.00;99937.81;5183661;55;1136951;-68
2023/02/18 14:35:24;;;;;;;3.35;1.62;;;;;;;5.25;100.00;99940.06;5009076;56;1136809;-68
2023/02/18 14:40:43;;;;;;;7.20;2.57;;;;;;;5.18;100.00;99944.03;5144654;55;1136698;-68
2023/02/18 14:46:22;;;;;;;2.90;2.00;;;;;;;5.13;100.00;99924.66;5097345;55;1136800;-69
2023/02/18 14:51:32;;;;;;;3.45;2.08;;;;;;;5.15;100.00;99924.09;5055019;56;1137042;-65
2023/02/18 14:56:56;;;;;;;2.73;1.70;;;;;;;5.10;100.00;99915.68;5101929;56;1136776;-67
2023/02/18 15:02:02;;;;;;;2.07;1.50;;;;;;;5.01;100.00;99912.35;5076192;56;1136989;-67
2023/02/18 15:07:11;;;;;;;9.53;2.43;;;;;;;4.98;100.00;99911.23;5138400;54;1249950;-68
2023/02/18 15:12:23;;;;;;;6.47;3.10;;;;;;;4.99;100.00;99908.98;5147795;55;1136857;-69
2023/02/18 15:17:30;;;;;;;10.00;5.90;;;;;;;5.02;100.00;99906.17;5184630;55;1134798;-70
2023/02/18 15:22:36;;;;;;;16.95;10.10;;;;;;;4.95;100.00;99904.41;5176951;55;1137685;-68
2023/02/18 15:27:45;;;;;;;18.80;10.00;;;;;;;4.91;100.00;99906.00;5158923;55;1140919;-68
2023/02/18 15:32:57;;;;;;;4.30;2.25;;;;;;;4.88;100.00;99895.27;5148692;55;1141063;-66
2023/02/18 15:38:04;;;;;;;3.10;2.77;;;;;;;4.87;100.00;99887.04;5135324;55;1136843;-68
2023/02/18 15:43:11;;;;;;;7.37;3.87;;;;;;;4.85;100.00;99876.28;5162811;56;1136894;-69
2023/02/18 15:48:27;;;;;;;4.53;3.20;;;;;;;4.85;100.00;99883.67;5148862;55;1135829;-67
2023/02/18 15:53:36;;;;;;;15.72;7.25;;;;;;;4.77;100.00;99885.92;5018782;56;1134686;-70
2023/02/18 15:58:41;;;;;;;18.93;8.93;;;;;;;4.72;100.00;99888.02;4978427;56;1138978;-69
2023/02/18 16:03:47;;;;;;;51.18;28.75;;;;;;;4.71;100.00;99898.12;5030793;56;1138919;-69
2023/02/18 16:09:09;;;;;;;25.93;12.30;;;;;;;4.72;100.00;99896.34;4978311;57;1141053;-71
2023/02/18 16:14:48;;;;;;;23.43;10.63;;;;;;;4.75;100.00;99884.33;5023351;56;1138939;-68
2023/02/18 16:20:11;;;;;;;14.63;7.27;;;;;;;4.74;100.00;99877.41;5012810;56;1139475;-67
2023/02/18 16:25:26;;;;;;;19.97;8.47;;;;;;;4.74;100.00;99880.03;5023527;57;1138900;-69
2023/02/18 16:30:34;;;;;;;20.53;11.03;;;;;;;4.80;100.00;99884.89;5087973;56;1141701;-69
2023/02/18 16:35:40;;;;;;;23.30;13.83;;;;;;;4.85;100.00;99890.22;5087462;55;1248932;-68
2023/02/18 16:40:46;;;;;;;21.02;11.97;;;;;;;4.94;100.00;99877.83;5087703;56;1141158;-70
2023/02/18 16:45:58;;;;;;;19.47;11.50;;;;;;;5.12;100.00;99885.44;5068772;56;1138914;-69
2023/02/18 16:51:24;;;;;;;16.70;7.97;;;;;;;5.11;100.00;99891.16;4906274;58;1141177;-67
2023/02/18 16:56:34;;;;;;;23.07;11.93;;;;;;;5.03;100.00;99907.86;5097828;56;1139426;-71
2023/02/18 17:01:44;;;;;;;133.57;94.33;;;;;;;4.95;100.00;99917.97;5131218;55;1141000;-67
2023/02/18 17:06:50;;;;;;;99.60;56.47;;;;;;;4.83;100.00;99919.60;5140149;55;1141036;-70
2023/02/18 17:11:58;;;;;;;12.37;6.93;;;;;;;4.77;100.00;99948.80;5147731;54;1138923;-68
2023/02/18 17:17:08;;;;;;;32.93;18.15;;;;;;;4.58;100.00;99969.23;5178449;54;1138918;-68
2023/02/18 17:22:15;;;;;;;6.25;3.87;;;;;;;4.58;100.00;99969.23;4980411;56;1141055;-71
2023/02/18 17:27:21;;;;;;;8.10;5.55;;;;;;;4.54;100.00;99968.58;4975810;56;1136925;-68
2023/02/18 17:32:28;;;;;;;28.93;15.17;;;;;;;4.52;100.00;99986.62;5016980;56;1136962;-68
2023/02/18 17:37:34;;;;;;;16.07;8.20;;;;;;;4.51;100.00;99987.55;5013904;56;1139988;-68
2023/02/18 17:42:40;;;;;;;32.30;16.40;;;;;;;4.43;100.00;100001.09;4957709;56;1136993;-66
2023/02/18 17:47:46;;;;;;;23.50;10.93;;;;;;;4.40;100.00;100017.02;4967893;56;1141103;-67
2023/02/18 17:52:52;;;;;;;14.37;8.60;;;;;;;4.34;100.00;100016.06;4953775;57;1141002;-66
2023/02/18 17:57:58;;;;;;;11.33;6.00;;;;;;;4.28;100.00;100039.16;4982453;58;1140817;-68
2023/02/18 18:03:06;;;;;;;4.63;2.17;;;;;;;4.21;100.00;100060.91;4981974;58;1140885;-69
2023/02/18 18:08:13;;;;;;;5.13;2.40;;;;;;;4.02;100.00;100074.22;5002400;58;1136738;-68
2023/02/18 18:13:23;;;;;;;36.20;20.67;;;;;;;4.02;100.00;100074.22;4982832;58;1136859;-66
2023/02/18 18:18:28;;;;;;;18.48;10.58;;;;;;;4.01;100.00;100084.77;4982435;58;1140944;-68
2023/02/18 18:23:34;;;;;;;16.77;12.90;;;;;;;3.94;100.00;100094.77;4982433;58;1141076;-70
2023/02/18 18:28:40;;;;;;;11.27;5.73;;;;;;;3.92;100.00;100101.85;4998580;58;1140976;-70
2023/02/18 18:33:51;;;;;;;8.17;4.43;;;;;;;3.88;100.00;100094.64;4982465;57;1138885;-70
2023/02/18 18:38:58;;;;;;;3.90;2.73;;;;;;;3.88;100.00;100082.86;4898928;58;1137173;-70
2023/02/18 18:44:07;;;;;;;5.37;3.77;;;;;;;3.85;100.00;100104.42;5002279;57;1137104;-68
2023/02/18 18:49:13;;;;;;;10.90;4.20;;;;;;;3.74;100.00;100107.65;4980419;57;1136868;-68
2023/02/18 18:54:18;;;;;;;8.53;4.80;;;;;;;3.67;100.00;100124.59;4973120;57;1139305;-66
2023/02/18 18:59:24;;;;;;;9.57;4.07;;;;;;;3.63;100.00;100136.64;4974521;58;1137067;-70
2023/02/18 19:04:30;;;;;;;7.25;4.33;;;;;;;3.59;100.00;100124.66;4973915;58;1137045;-67
2023/02/18 19:09:36;;;;;;;9.55;5.03;;;;;;;3.56;100.00;100109.13;4982767;58;1136920;-70
2023/02/18 19:14:42;;;;;;;14.53;7.63;;;;;;;3.49;100.00;100117.80;5002263;58;1136834;-67
2023/02/18 19:19:47;;;;;;;9.00;4.60;;;;;;;3.45;100.00;100137.18;4982121;58;1139058;-65
2023/02/18 19:24:53;;;;;;;4.43;3.33;;;;;;;3.41;100.00;100131.73;4981851;58;1136826;-69
2023/02/18 19:29:59;;;;;;;6.93;3.00;;;;;;;3.39;100.00;100146.65;5002240;58;1136833;-66
2023/02/18 19:35:05;;;;;;;4.83;2.70;;;;;;;3.37;100.00;100151.11;5025429;56;1136879;-70
2023/02/18 19:40:15;;;;;;;7.70;3.83;;;;;;;3.32;100.00;100159.68;4949612;58;1136892;-68
2023/02/18 19:45:22;;;;;;;3.73;2.47;;;;;;;3.26;100.00;100173.91;4969019;58;1136995;-65
2023/02/18 19:50:30;;;;;;;3.83;1.90;;;;;;;3.27;100.00;100180.83;4982867;58;1136808;-65
2023/02/18 19:55:38;;;;;;;5.30;2.30;;;;;;;3.31;100.00;100174.98;4982779;58;1136819;-68
2023/02/18 20:00:44;;;;;;;3.23;2.13;;;;;;;3.28;100.00;100188.20;5050208;57;1136974;-66
2023/02/18 20:05:50;;;;;;;6.33;2.40;;;;;;;3.27;100.00;100189.13;5034366;57;1137068;-67
2023/02/18 20:11:00;;;;;;;10.30;5.43;;;;;;;3.26;100.00;100186.13;5033823;57;1136727;-66
2023/02/18 20:16:09;;;;;;;3.83;2.30;;;;;;;3.28;100.00;100197.35;5053737;57;1138949;-68
2023/02/18 20:21:15;;;;;;;4.70;3.00;;;;;;;3.28;100.00;100215.65;5033946;57;1136980;-66
2023/02/18 20:26:21;;;;;;;10.17;5.40;;;;;;;3.24;100.00;100227.17;4898828;58;1136856;-70
2023/02/18 20:31:26;;;;;;;7.57;2.03;;;;;;;3.24;100.00;100229.79;4990656;58;1139019;-67
2023/02/18 20:36:32;;;;;;;4.60;2.62;;;;;;;3.18;100.00;100230.52;4984077;57;1136796;-69
2023/02/18 20:41:38;;;;;;;3.97;2.40;;;;;;;3.15;100.00;100241.58;4911558;58;1136734;-68
2023/02/18 20:46:45;;;;;;;8.30;5.37;;;;;;;3.14;100.00;100268.63;4935065;58;1136736;-66
2023/02/18 20:51:51;;;;;;;8.57;5.20;;;;;;;3.17;100.00;100284.16;5011316;58;1136810;-67
2023/02/18 20:56:56;;;;;;;11.67;5.60;;;;;;;3.15;100.00;100286.84;4991218;58;1137109;-67
2023/02/18 21:02:02;;;;;;;9.47;3.87;;;;;;;3.13;100.00;100278.69;4951498;58;1138821;-71
2023/02/18 21:07:08;;;;;;;8.33;4.53;;;;;;;3.11;100.00;100276.62;4960174;58;1136800;-66
2023/02/18 21:12:13;;;;;;;7.33;3.80;;;;;;;3.12;100.00;100286.14;4913433;58;1136936;-67
2023/02/18 21:17:20;;;;;;;8.18;4.17;;;;;;;3.09;100.00;100280.61;4923349;56;1136840;-70
2023/02/18 21:22:26;;;;;;;7.97;3.60;;;;;;;3.06;100.00;100282.06;4994802;56;1140152;-69
2023/02/18 21:27:32;;;;;;;10.20;4.72;;;;;;;3.04;100.00;100297.45;4932005;58;1136842;-70
2023/02/18 21:32:38;;;;;;;11.68;6.47;;;;;;;3.03;100.00;100298.37;4992000;57;1181249;-67
2023/02/18 21:37:43;;;;;;;14.95;7.08;;;;;;;3.07;100.00;100310.34;4981269;57;1138912;-69
2023/02/18 21:42:49;;;;;;;15.83;7.37;;;;;;;3.03;100.00;100313.59;4974979;57;1138809;-65
2023/02/18 21:47:56;;;;;;;12.27;6.57;;;;;;;3.03;100.00;100321.89;4883920;58;1138899;-69
2023/02/18 21:53:04;;;;;;;10.30;6.17;;;;;;;3.02;100.00;100323.66;5092786;55;1152614;-68
2023/02/18 21:58:13;;;;;;;14.80;8.37;;;;;;;3.01;100.00;100318.05;4959744;55;1139012;-66
2023/02/18 22:03:19;;;;;;;15.00;7.17;;;;;;;3.01;100.00;100331.11;4979828;55;1163538;-67
2023/02/18 22:08:24;;;;;;;15.10;7.77;;;;;;;3.05;100.00;100337.88;4942905;58;1231689;-66
2023/02/18 22:13:30;;;;;;;11.97;7.30;;;;;;;3.08;100.00;100335.09;4983985;55;1138963;-69
2023/02/18 22:18:36;;;;;;;14.00;7.85;;;;;;;3.09;100.00;100344.63;5004015;56;1138778;-67
2023/02/18 22:23:42;;;;;;;12.33;6.03;;;;;;;3.10;100.00;100355.46;4971072;56;1138899;-67
2023/02/18 22:28:56;;;;;;;9.25;5.87;;;;;;;3.10;100.00;100365.91;4853670;57;1139039;-69
2023/02/18 22:34:02;;;;;;;10.63;5.30;;;;;;;3.09;100.00;100367.29;5120968;54;1136871;-69
2023/02/18 22:39:10;;;;;;;10.10;4.80;;;;;;;3.07;100.00;100360.83;5078788;55;1138957;-69
2023/02/18 22:44:17;;;;;;;14.37;5.50;;;;;;;3.09;100.00;100358.14;5016998;55;1138891;-69
2023/02/18 22:49:23;;;;;;;17.10;5.43;;;;;;;3.12;100.00;100362.77;5009370;56;1138894;-68
2023/02/18 22:54:33;;;;;;;8.57;4.53;;;;;;;3.09;100.00;100358.14;4984339;57;1138856;-68
2023/02/18 22:59:38;;;;;;;8.90;4.90;;;;;;;3.10;100.00;100353.31;4985011;57;1136841;-67
2023/02/18 23:04:44;;;;;;;7.65;4.05;;;;;;;3.10;100.00;100352.84;5009370;56;1136781;-68
2023/02/18 23:09:50;;;;;;;7.67;4.27;;;;;;;3.14;100.00;100348.32;4862721;58;1136772;-67
2023/02/18 23:14:56;;;;;;;9.30;5.07;;;;;;;3.08;100.00;100340.31;4855830;57;1136931;-69
2023/02/18 23:20:02;;;;;;;11.70;4.47;;;;;;;3.10;100.00;100342.86;4888260;57;1136751;-69
2023/02/18 23:25:08;;;;;;;11.50;4.17;;;;;;;3.11;100.00;100341.94;5120253;55;1139043;-68
2023/02/18 23:30:14;;;;;;;11.97;4.87;;;;;;;3.11;100.00;100345.39;4963483;56;1138773;-70
2023/02/18 23:35:21;;;;;;;12.83;3.87;;;;;;;3.08;100.00;100353.38;4972667;56;1138928;-70
2023/02/18 23:40:27;;;;;;;8.05;3.25;;;;;;;3.08;100.00;100352.53;4967462;56;1138763;-70
2023/02/18 23:45:33;;;;;;;4.65;3.55;;;;;;;3.01;100.00;100337.64;5013366;56;1136749;-69